Pagrindinis puslapis
METAR-TAF:

METAR-TAF

Oro uostai :

Kutaisis, Gruzija

platuma: 42-10-35N, ilguma: 042-28-57E, Aukštis: 68 m

Dabartinis oras

Ataskaita buvo paskelbta 24 minutes, ne 15:30 UTC
Vėjas 11 kt iš Rytų
Temperatūra 6°C
Drėgmė 49%
Slėgis 1028 hPa
Matomumas 10 km arba daugiau
nėra debesų žemiau 1500 m ir nėra kamuolinių lietaus debesų

METAR: UGKO 221530Z 10011KT CAVOK 06/M04 Q1028 NOSIG

Laikas: 19:54 (15:54 UTC)

Prognozė

Ataskaita buvo paskelbta 4 valandos ir 54 minutes, ne 11:00 UTC
Prognozė galioja nuo 22 metu 12 UTC su 23 metu 12 UTC
Vėjas 14 kt iš Rytų
Matomumas 10 km arba daugiau
nėra debesų žemiau 1500 m ir nėra kamuolinių lietaus debesų
Laikinai
nuo 22 metu 18 UTC su 22 metu 24 UTC
Vėjas 4 kt iš Rytų

TAF: UGKO 221100Z 2212/2312 08014KT CAVOK TX09/2212Z TN00/2303Z TEMPO 2218/2224 08004KT

Orai ataskaitas ir orų prognozės (METAR, TAF).

turimą stotys yra geltonos ir raudonos taškus žemėlapyje.

Perkelti pele per norėdami pamatyti stoties vardą.

Tada spustelėkite, norėdami matyti oro stebėjimo ir prognozės.

Norėdami pakeisti žemėlapį: spustelėkite ant žalios mygtukų su juodo kryžiaus žemyn,; žalią mygtuką su brūkšneliu, jei norite nutolinti; arba žalių rodyklių gretimoms žemėlapius.


METAR-TAF: